sensor_id;sensor_type;location;lat;lon;timestamp;pressure;altitude;pressure_sealevel;temperature;humidity
44839;BME280;30576;42.098;24.876;2022-10-16T00:01:50;100457.53;;;11.45;66.26
44839;BME280;30576;42.098;24.876;2022-10-16T00:04:16;100459.25;;;11.47;66.72
44839;BME280;30576;42.098;24.876;2022-10-16T00:06:41;100453.84;;;11.66;65.93
44839;BME280;30576;42.098;24.876;2022-10-16T00:09:06;100457.34;;;11.71;65.58
44839;BME280;30576;42.098;24.876;2022-10-16T00:11:33;100458.19;;;11.73;65.63
44839;BME280;30576;42.098;24.876;2022-10-16T00:13:59;100451.97;;;11.80;65.57
44839;BME280;30576;42.098;24.876;2022-10-16T00:16:25;100459.00;;;11.80;65.53
44839;BME280;30576;42.098;24.876;2022-10-16T00:18:50;100459.94;;;11.76;65.37
44839;BME280;30576;42.098;24.876;2022-10-16T00:21:17;100454.56;;;11.88;65.14
44839;BME280;30576;42.098;24.876;2022-10-16T00:23:43;100455.56;;;11.72;65.23
44839;BME280;30576;42.098;24.876;2022-10-16T00:26:10;100458.22;;;11.70;65.35
44839;BME280;30576;42.098;24.876;2022-10-16T00:28:36;100457.38;;;11.68;65.56
44839;BME280;30576;42.098;24.876;2022-10-16T00:31:08;100457.38;;;11.68;65.52
44839;BME280;30576;42.098;24.876;2022-10-16T00:33:34;100455.63;;;11.64;65.37
44839;BME280;30576;42.098;24.876;2022-10-16T00:36:00;100465.31;;;11.65;65.10
44839;BME280;30576;42.098;24.876;2022-10-16T00:38:25;100468.09;;;11.45;65.67
44839;BME280;30576;42.098;24.876;2022-10-16T00:40:51;100468.13;;;11.39;65.82
44839;BME280;30576;42.098;24.876;2022-10-16T00:46:01;100471.75;;;11.18;67.17
44839;BME280;30576;42.098;24.876;2022-10-16T00:48:26;100468.28;;;11.11;67.47
44839;BME280;30576;42.098;24.876;2022-10-16T00:50:52;100473.56;;;11.11;68.05
44839;BME280;30576;42.098;24.876;2022-10-16T00:53:18;100469.94;;;11.24;67.26
44839;BME280;30576;42.098;24.876;2022-10-16T00:55:43;100486.72;;;11.17;67.19
44839;BME280;30576;42.098;24.876;2022-10-16T00:58:09;100484.03;;;11.26;67.05
44839;BME280;30576;42.098;24.876;2022-10-16T01:00:34;100491.09;;;11.18;67.33
44839;BME280;30576;42.098;24.876;2022-10-16T01:03:00;100492.03;;;11.14;67.44
44839;BME280;30576;42.098;24.876;2022-10-16T01:05:34;100490.25;;;11.18;67.26
44839;BME280;30576;42.098;24.876;2022-10-16T01:10:38;100499.03;;;11.20;67.32
44839;BME280;30576;42.098;24.876;2022-10-16T01:13:06;100501.63;;;11.27;66.95
44839;BME280;30576;42.098;24.876;2022-10-16T01:20:27;100510.47;;;11.23;67.67
44839;BME280;30576;42.098;24.876;2022-10-16T01:25:25;100513.97;;;11.27;67.54
44839;BME280;30576;42.098;24.876;2022-10-16T01:27:55;100523.66;;;11.26;67.70
44839;BME280;30576;42.098;24.876;2022-10-16T01:30:26;100515.78;;;11.17;68.06
44839;BME280;30576;42.098;24.876;2022-10-16T01:32:55;100520.09;;;11.29;67.45
44839;BME280;30576;42.098;24.876;2022-10-16T01:38:05;100514.03;;;11.15;68.11
44839;BME280;30576;42.098;24.876;2022-10-16T01:40:32;100524.59;;;11.08;67.57
44839;BME280;30576;42.098;24.876;2022-10-16T01:43:00;100522.81;;;11.10;67.59
44839;BME280;30576;42.098;24.876;2022-10-16T01:45:28;100530.72;;;11.17;67.50
44839;BME280;30576;42.098;24.876;2022-10-16T01:47:54;100528.97;;;11.19;67.79
44839;BME280;30576;42.098;24.876;2022-10-16T01:50:20;100530.72;;;11.18;67.81
44839;BME280;30576;42.098;24.876;2022-10-16T01:52:47;100534.19;;;11.36;67.30
44839;BME280;30576;42.098;24.876;2022-10-16T01:55:16;100535.03;;;11.38;67.40
44839;BME280;30576;42.098;24.876;2022-10-16T01:57:44;100537.69;;;11.38;67.65
44839;BME280;30576;42.098;24.876;2022-10-16T02:00:11;100541.16;;;11.46;67.16
44839;BME280;30576;42.098;24.876;2022-10-16T02:02:38;100541.09;;;11.57;67.24
44839;BME280;30576;42.098;24.876;2022-10-16T02:05:05;100539.38;;;11.54;67.59
44839;BME280;30576;42.098;24.876;2022-10-16T02:07:34;100541.06;;;11.64;67.39
44839;BME280;30576;42.098;24.876;2022-10-16T02:09:59;100539.28;;;11.70;66.96
44839;BME280;30576;42.098;24.876;2022-10-16T02:12:26;100544.59;;;11.67;67.29
44839;BME280;30576;42.098;24.876;2022-10-16T02:14:52;100539.38;;;11.51;67.98
44839;BME280;30576;42.098;24.876;2022-10-16T02:17:18;100541.09;;;11.57;67.64
44839;BME280;30576;42.098;24.876;2022-10-16T02:19:44;100544.63;;;11.59;68.12
44839;BME280;30576;42.098;24.876;2022-10-16T02:22:15;100546.41;;;11.54;68.00
44839;BME280;30576;42.098;24.876;2022-10-16T02:24:54;100541.09;;;11.55;68.10
44839;BME280;30576;42.098;24.876;2022-10-16T02:29:48;100547.25;;;11.65;68.29
44839;BME280;30576;42.098;24.876;2022-10-16T02:32:17;100546.34;;;11.64;68.27
44839;BME280;30576;42.098;24.876;2022-10-16T02:34:44;100549.84;;;11.71;67.73
44839;BME280;30576;42.098;24.876;2022-10-16T02:37:10;100548.16;;;11.58;67.72
44839;BME280;30576;42.098;24.876;2022-10-16T02:39:36;100549.97;;;11.48;67.95
44839;BME280;30576;42.098;24.876;2022-10-16T02:42:02;100553.50;;;11.44;68.51
44839;BME280;30576;42.098;24.876;2022-10-16T02:44:27;100554.41;;;11.37;68.67
44839;BME280;30576;42.098;24.876;2022-10-16T02:46:53;100558.78;;;11.42;68.44
44839;BME280;30576;42.098;24.876;2022-10-16T02:49:18;100558.81;;;11.41;68.21
44839;BME280;30576;42.098;24.876;2022-10-16T02:51:43;100576.44;;;11.39;68.15
44839;BME280;30576;42.098;24.876;2022-10-16T02:54:09;100572.09;;;11.18;68.47
44839;BME280;30576;42.098;24.876;2022-10-16T02:56:34;100573.03;;;10.98;69.79
44839;BME280;30576;42.098;24.876;2022-10-16T02:58:59;100576.53;;;11.08;69.94
44839;BME280;30576;42.098;24.876;2022-10-16T03:01:25;100578.22;;;11.26;69.26
44839;BME280;30576;42.098;24.876;2022-10-16T03:03:50;100571.16;;;11.39;68.48
44839;BME280;30576;42.098;24.876;2022-10-16T03:06:15;100573.78;;;11.40;68.59
44839;BME280;30576;42.098;24.876;2022-10-16T03:08:41;100581.75;;;11.26;68.62
44839;BME280;30576;42.098;24.876;2022-10-16T03:11:06;100585.31;;;11.21;68.67
44839;BME280;30576;42.098;24.876;2022-10-16T03:13:32;100580.84;;;11.31;68.68
44839;BME280;30576;42.098;24.876;2022-10-16T03:15:58;100580.84;;;11.27;68.84
44839;BME280;30576;42.098;24.876;2022-10-16T03:18:23;100584.38;;;11.37;68.41
44839;BME280;30576;42.098;24.876;2022-10-16T03:20:48;100595.78;;;11.41;68.44
44839;BME280;30576;42.098;24.876;2022-10-16T03:23:14;100594.00;;;11.46;68.25
44839;BME280;30576;42.098;24.876;2022-10-16T03:25:39;100591.31;;;11.52;68.27
44839;BME280;30576;42.098;24.876;2022-10-16T03:28:05;100606.28;;;11.59;67.93
44839;BME280;30576;42.098;24.876;2022-10-16T03:30:30;100595.75;;;11.53;68.21
44839;BME280;30576;42.098;24.876;2022-10-16T03:32:55;100596.63;;;11.47;68.84
44839;BME280;30576;42.098;24.876;2022-10-16T03:35:21;100601.91;;;11.49;68.45
44839;BME280;30576;42.098;24.876;2022-10-16T03:37:46;100594.91;;;11.43;68.47
44839;BME280;30576;42.098;24.876;2022-10-16T03:40:12;100605.47;;;11.43;68.39
44839;BME280;30576;42.098;24.876;2022-10-16T03:42:37;100607.25;;;11.37;68.23
44839;BME280;30576;42.098;24.876;2022-10-16T03:45:03;100605.56;;;11.20;68.51
44839;BME280;30576;42.098;24.876;2022-10-16T03:47:28;100607.25;;;11.37;68.67
44839;BME280;30576;42.098;24.876;2022-10-16T03:49:53;100615.16;;;11.38;68.11
44839;BME280;30576;42.098;24.876;2022-10-16T03:52:19;100613.44;;;11.36;68.27
44839;BME280;30576;42.098;24.876;2022-10-16T03:54:44;100609.03;;;11.35;68.51
44839;BME280;30576;42.098;24.876;2022-10-16T03:57:09;100615.19;;;11.32;68.08
44839;BME280;30576;42.098;24.876;2022-10-16T03:59:35;100612.56;;;11.26;68.52
44839;BME280;30576;42.098;24.876;2022-10-16T04:02:00;100617.88;;;11.20;68.36
44839;BME280;30576;42.098;24.876;2022-10-16T04:04:26;100614.38;;;11.10;68.55
44839;BME280;30576;42.098;24.876;2022-10-16T04:06:51;100617.03;;;11.08;68.58
44839;BME280;30576;42.098;24.876;2022-10-16T04:09:16;100614.38;;;11.05;68.25
44839;BME280;30576;42.098;24.876;2022-10-16T04:11:43;100620.56;;;10.93;68.27
44839;BME280;30576;42.098;24.876;2022-10-16T04:14:08;100613.56;;;10.86;68.73
44839;BME280;30576;42.098;24.876;2022-10-16T04:16:33;100616.19;;;10.89;68.67
44839;BME280;30576;42.098;24.876;2022-10-16T04:18:59;100612.66;;;10.90;68.63
44839;BME280;30576;42.098;24.876;2022-10-16T04:21:24;100608.28;;;10.85;68.64
44839;BME280;30576;42.098;24.876;2022-10-16T04:23:49;100615.31;;;10.72;68.62
44839;BME280;30576;42.098;24.876;2022-10-16T04:26:15;100615.31;;;10.56;69.54
44839;BME280;30576;42.098;24.876;2022-10-16T04:28:40;100616.22;;;10.72;68.80
44839;BME280;30576;42.098;24.876;2022-10-16T04:31:06;100622.34;;;10.81;68.54
44839;BME280;30576;42.098;24.876;2022-10-16T04:33:31;100623.22;;;10.73;68.57
44839;BME280;30576;42.098;24.876;2022-10-16T04:35:57;100624.13;;;10.74;68.36
44839;BME280;30576;42.098;24.876;2022-10-16T04:38:23;100621.50;;;10.60;68.95
44839;BME280;30576;42.098;24.876;2022-10-16T04:40:48;100623.22;;;10.60;69.23
44839;BME280;30576;42.098;24.876;2022-10-16T04:43:13;100632.91;;;10.50;69.41
44839;BME280;30576;42.098;24.876;2022-10-16T04:45:39;100625.88;;;10.64;68.73
44839;BME280;30576;42.098;24.876;2022-10-16T04:48:04;100636.41;;;10.63;68.74
44839;BME280;30576;42.098;24.876;2022-10-16T04:50:29;100632.91;;;10.54;69.17
44839;BME280;30576;42.098;24.876;2022-10-16T04:52:55;100627.63;;;10.51;69.32
44839;BME280;30576;42.098;24.876;2022-10-16T04:55:20;100631.13;;;10.32;69.74
44839;BME280;30576;42.098;24.876;2022-10-16T04:57:45;100628.53;;;10.39;69.53
44839;BME280;30576;42.098;24.876;2022-10-16T05:00:11;100631.13;;;10.29;69.35
44839;BME280;30576;42.098;24.876;2022-10-16T05:02:36;100641.69;;;10.32;69.30
44839;BME280;30576;42.098;24.876;2022-10-16T05:05:01;100638.19;;;10.41;69.20
44839;BME280;30576;42.098;24.876;2022-10-16T05:07:27;100640.81;;;10.44;68.71
44839;BME280;30576;42.098;24.876;2022-10-16T05:09:52;100639.06;;;10.56;68.32
44839;BME280;30576;42.098;24.876;2022-10-16T05:12:18;100648.75;;;10.57;68.21
44839;BME280;30576;42.098;24.876;2022-10-16T05:14:43;100646.97;;;10.55;68.07
44839;BME280;30576;42.098;24.876;2022-10-16T05:17:09;100643.47;;;10.44;68.44
44839;BME280;30576;42.098;24.876;2022-10-16T05:19:34;100649.63;;;10.41;68.77
44839;BME280;30576;42.098;24.876;2022-10-16T05:21:59;100658.41;;;10.37;68.74
44839;BME280;30576;42.098;24.876;2022-10-16T05:24:25;100654.91;;;10.33;69.19
44839;BME280;30576;42.098;24.876;2022-10-16T05:26:50;100660.13;;;10.19;70.50
44839;BME280;30576;42.098;24.876;2022-10-16T05:29:16;100663.66;;;10.29;70.29
44839;BME280;30576;42.098;24.876;2022-10-16T05:31:41;100661.00;;;10.20;70.96
44839;BME280;30576;42.098;24.876;2022-10-16T05:34:07;100673.28;;;10.07;71.84
44839;BME280;30576;42.098;24.876;2022-10-16T05:36:32;100674.19;;;10.28;71.86
44839;BME280;30576;42.098;24.876;2022-10-16T05:38:57;100681.22;;;10.16;71.88
44839;BME280;30576;42.098;24.876;2022-10-16T05:41:23;100676.84;;;10.32;72.30
44839;BME280;30576;42.098;24.876;2022-10-16T05:43:51;100688.28;;;10.37;72.03
44839;BME280;30576;42.098;24.876;2022-10-16T05:46:17;100688.22;;;10.22;72.49
44839;BME280;30576;42.098;24.876;2022-10-16T05:48:45;100692.63;;;10.18;72.86
44839;BME280;30576;42.098;24.876;2022-10-16T05:53:40;100696.13;;;10.20;73.38
44839;BME280;30576;42.098;24.876;2022-10-16T05:56:06;100693.59;;;10.50;73.29
44839;BME280;30576;42.098;24.876;2022-10-16T05:58:33;100696.25;;;10.67;72.30
44839;BME280;30576;42.098;24.876;2022-10-16T06:01:00;100702.41;;;10.52;72.75
44839;BME280;30576;42.098;24.876;2022-10-16T06:03:26;100700.66;;;10.75;71.96
44839;BME280;30576;42.098;24.876;2022-10-16T06:05:51;100699.75;;;10.87;72.14
44839;BME280;30576;42.098;24.876;2022-10-16T06:08:17;100706.78;;;11.13;73.06
44839;BME280;30576;42.098;24.876;2022-10-16T06:10:44;100706.75;;;11.44;71.63
44839;BME280;30576;42.098;24.876;2022-10-16T06:13:10;100719.88;;;11.72;69.69
44839;BME280;30576;42.098;24.876;2022-10-16T06:15:35;100723.25;;;12.15;68.91
44839;BME280;30576;42.098;24.876;2022-10-16T06:18:01;100727.66;;;12.13;67.33
44839;BME280;30576;42.098;24.876;2022-10-16T06:20:26;100724.22;;;11.88;67.93
44839;BME280;30576;42.098;24.876;2022-10-16T06:22:53;100719.88;;;11.73;69.38
44839;BME280;30576;42.098;24.876;2022-10-16T06:25:19;100720.66;;;11.91;69.64
44839;BME280;30576;42.098;24.876;2022-10-16T06:27:46;100723.19;;;12.26;68.78
44839;BME280;30576;42.098;24.876;2022-10-16T06:30:11;100732.66;;;12.66;68.43
44839;BME280;30576;42.098;24.876;2022-10-16T06:32:36;100734.16;;;13.02;66.02
44839;BME280;30576;42.098;24.876;2022-10-16T06:35:02;100733.16;;;13.13;66.05
44839;BME280;30576;42.098;24.876;2022-10-16T06:37:27;100733.81;;;13.42;65.82
44839;BME280;30576;42.098;24.876;2022-10-16T06:39:52;100736.53;;;13.35;65.23
44839;BME280;30576;42.098;24.876;2022-10-16T06:42:18;100735.16;;;13.77;64.03
44839;BME280;30576;42.098;24.876;2022-10-16T06:44:43;100741.31;;;13.83;63.44
44839;BME280;30576;42.098;24.876;2022-10-16T06:47:09;100745.16;;;14.27;62.46
44839;BME280;30576;42.098;24.876;2022-10-16T06:49:34;100748.09;;;14.07;62.17
44839;BME280;30576;42.098;24.876;2022-10-16T06:51:59;100746.50;;;13.92;61.77
44839;BME280;30576;42.098;24.876;2022-10-16T06:54:25;100753.38;;;14.08;62.41
44839;BME280;30576;42.098;24.876;2022-10-16T06:56:51;100760.50;;;14.05;61.12
44839;BME280;30576;42.098;24.876;2022-10-16T06:59:16;100748.06;;;14.08;61.67
44839;BME280;30576;42.098;24.876;2022-10-16T07:01:42;100748.84;;;14.18;60.22
44839;BME280;30576;42.098;24.876;2022-10-16T07:07:28;100746.56;;;14.54;60.82
44839;BME280;30576;42.098;24.876;2022-10-16T07:09:54;100752.56;;;14.68;59.53
44839;BME280;30576;42.098;24.876;2022-10-16T07:12:19;100751.81;;;14.59;59.66
44839;BME280;30576;42.098;24.876;2022-10-16T07:14:44;100751.81;;;14.59;60.74
44839;BME280;30576;42.098;24.876;2022-10-16T07:17:10;100760.34;;;14.82;59.86
44839;BME280;30576;42.098;24.876;2022-10-16T07:19:42;100760.97;;;15.00;58.56
44839;BME280;30576;42.098;24.876;2022-10-16T07:22:10;100763.81;;;14.88;58.13
44839;BME280;30576;42.098;24.876;2022-10-16T07:24:36;100756.13;;;14.69;58.57
44839;BME280;30576;42.098;24.876;2022-10-16T07:27:01;100769.88;;;14.96;57.48
44839;BME280;30576;42.098;24.876;2022-10-16T07:29:26;100768.59;;;14.62;58.54
44839;BME280;30576;42.098;24.876;2022-10-16T07:31:52;100765.84;;;14.68;58.46
44839;BME280;30576;42.098;24.876;2022-10-16T07:34:20;100766.59;;;14.80;57.88
44839;BME280;30576;42.098;24.876;2022-10-16T07:36:49;100758.31;;;15.00;57.20
44839;BME280;30576;42.098;24.876;2022-10-16T07:39:14;100766.34;;;14.95;57.97
44839;BME280;30576;42.098;24.876;2022-10-16T07:41:40;100759.28;;;15.44;56.97
44839;BME280;30576;42.098;24.876;2022-10-16T07:44:05;100756.09;;;15.73;57.03
44839;BME280;30576;42.098;24.876;2022-10-16T07:46:32;100757.97;;;16.14;55.46
44839;BME280;30576;42.098;24.876;2022-10-16T07:48:59;100758.19;;;16.03;54.54
44839;BME280;30576;42.098;24.876;2022-10-16T07:51:25;100760.19;;;15.93;54.75
44839;BME280;30576;42.098;24.876;2022-10-16T07:53:51;100761.28;;;16.25;53.55
44839;BME280;30576;42.098;24.876;2022-10-16T07:56:17;100757.97;;;16.14;53.48
44839;BME280;30576;42.098;24.876;2022-10-16T07:58:43;100763.75;;;16.34;53.86
44839;BME280;30576;42.098;24.876;2022-10-16T08:01:09;100760.59;;;16.56;53.35
44839;BME280;30576;42.098;24.876;2022-10-16T08:03:35;100757.00;;;16.58;53.10
44839;BME280;30576;42.098;24.876;2022-10-16T08:06:01;100763.00;;;16.67;52.14
44839;BME280;30576;42.098;24.876;2022-10-16T08:08:26;100751.94;;;17.23;51.81
44839;BME280;30576;42.098;24.876;2022-10-16T08:10:52;100755.75;;;17.12;51.25
44839;BME280;30576;42.098;24.876;2022-10-16T08:13:17;100749.81;;;17.01;51.61
44839;BME280;30576;42.098;24.876;2022-10-16T08:15:44;100754.41;;;16.94;50.92
44839;BME280;30576;42.098;24.876;2022-10-16T08:18:10;100750.97;;;16.89;51.74
44839;BME280;30576;42.098;24.876;2022-10-16T08:20:36;100751.09;;;16.83;50.98
44839;BME280;30576;42.098;24.876;2022-10-16T08:23:02;100742.66;;;17.03;52.79
44839;BME280;30576;42.098;24.876;2022-10-16T08:25:27;100747.16;;;17.01;53.26
44839;BME280;30576;42.098;24.876;2022-10-16T08:27:53;100744.44;;;18.03;49.25
44839;BME280;30576;42.098;24.876;2022-10-16T08:30:19;100744.53;;;18.30;47.88
44839;BME280;30576;42.098;24.876;2022-10-16T08:32:45;100745.84;;;17.83;49.43
44839;BME280;30576;42.098;24.876;2022-10-16T08:35:11;100745.63;;;17.93;48.43
44839;BME280;30576;42.098;24.876;2022-10-16T08:37:36;100736.84;;;18.19;47.72
44839;BME280;30576;42.098;24.876;2022-10-16T08:40:02;100731.13;;;17.68;48.44
44839;BME280;30576;42.098;24.876;2022-10-16T08:45:13;100736.84;;;17.89;47.93
44839;BME280;30576;42.098;24.876;2022-10-16T08:47:48;100738.25;;;18.32;47.36
44839;BME280;30576;42.098;24.876;2022-10-16T08:50:21;100737.13;;;17.78;48.66
44839;BME280;30576;42.098;24.876;2022-10-16T08:52:48;100734.91;;;17.94;47.75
44839;BME280;30576;42.098;24.876;2022-10-16T08:55:24;100738.59;;;17.88;46.53
44839;BME280;30576;42.098;24.876;2022-10-16T08:57:55;100739.53;;;17.54;46.27
44839;BME280;30576;42.098;24.876;2022-10-16T09:00:20;100736.91;;;17.53;47.66
44839;BME280;30576;42.098;24.876;2022-10-16T09:10:58;100730.72;;;18.45;45.11
44839;BME280;30576;42.098;24.876;2022-10-16T09:13:50;100733.69;;;18.06;44.05
44839;BME280;30576;42.098;24.876;2022-10-16T09:19:41;100734.41;;;18.11;43.44
44839;BME280;30576;42.098;24.876;2022-10-16T09:22:31;100735.34;;;18.08;42.58
44839;BME280;30576;42.098;24.876;2022-10-16T09:24:59;100741.66;;;18.07;42.30
44839;BME280;30576;42.098;24.876;2022-10-16T09:27:27;100741.06;;;17.96;42.60
44839;BME280;30576;42.098;24.876;2022-10-16T09:29:53;100734.34;;;18.13;42.95
44839;BME280;30576;42.098;24.876;2022-10-16T09:32:23;100733.00;;;17.98;43.54
44839;BME280;30576;42.098;24.876;2022-10-16T09:34:55;100723.13;;;18.31;43.45
44839;BME280;30576;42.098;24.876;2022-10-16T09:37:38;100726.41;;;18.69;43.88
44839;BME280;30576;42.098;24.876;2022-10-16T09:40:05;100720.16;;;18.40;43.10
44839;BME280;30576;42.098;24.876;2022-10-16T09:42:43;100721.50;;;18.25;42.19
44839;BME280;30576;42.098;24.876;2022-10-16T09:45:22;100714.22;;;18.01;42.74
44839;BME280;30576;42.098;24.876;2022-10-16T09:47:54;100714.28;;;18.29;41.71
44839;BME280;30576;42.098;24.876;2022-10-16T09:50:25;100707.91;;;18.33;44.34
44839;BME280;30576;42.098;24.876;2022-10-16T09:53:02;100705.94;;;18.68;42.79
44839;BME280;30576;42.098;24.876;2022-10-16T09:55:27;100705.88;;;18.98;41.89
44839;BME280;30576;42.098;24.876;2022-10-16T09:57:53;100694.94;;;18.51;41.77
44839;BME280;30576;42.098;24.876;2022-10-16T10:00:19;100697.22;;;18.90;40.90
44839;BME280;30576;42.098;24.876;2022-10-16T10:02:45;100696.59;;;18.82;41.39
44839;BME280;30576;42.098;24.876;2022-10-16T10:05:27;100686.09;;;18.75;41.68
44839;BME280;30576;42.098;24.876;2022-10-16T10:07:54;100684.56;;;19.22;40.23
44839;BME280;30576;42.098;24.876;2022-10-16T10:10:22;100686.06;;;19.29;39.74
44839;BME280;30576;42.098;24.876;2022-10-16T10:12:47;100688.81;;;19.27;40.45
44839;BME280;30576;42.098;24.876;2022-10-16T10:15:13;100681.38;;;19.10;40.22
44839;BME280;30576;42.098;24.876;2022-10-16T10:17:47;100688.47;;;18.86;38.94
44839;BME280;30576;42.098;24.876;2022-10-16T10:20:21;100684.47;;;18.98;38.49
44839;BME280;30576;42.098;24.876;2022-10-16T10:22:47;100679.75;;;18.78;39.45
44839;BME280;30576;42.098;24.876;2022-10-16T10:38:20;100679.66;;;19.35;38.04
44839;BME280;30576;42.098;24.876;2022-10-16T10:40:48;100664.19;;;19.43;37.63
44839;BME280;30576;42.098;24.876;2022-10-16T10:45:48;100663.31;;;19.42;37.41
44839;BME280;30576;42.098;24.876;2022-10-16T10:56:00;100654.53;;;19.13;37.16
44839;BME280;30576;42.098;24.876;2022-10-16T11:06:22;100651.84;;;19.13;37.64
44839;BME280;30576;42.098;24.876;2022-10-16T11:09:01;100648.63;;;19.29;37.72
44839;BME280;30576;42.098;24.876;2022-10-16T11:16:22;100649.50;;;19.55;37.18
44839;BME280;30576;42.098;24.876;2022-10-16T11:21:36;100640.94;;;19.68;36.56
44839;BME280;30576;42.098;24.876;2022-10-16T11:24:06;100626.53;;;19.73;36.71
44839;BME280;30576;42.098;24.876;2022-10-16T11:26:35;100638.72;;;19.56;37.79
44839;BME280;30576;42.098;24.876;2022-10-16T11:29:04;100639.47;;;19.60;38.29
44839;BME280;30576;42.098;24.876;2022-10-16T11:31:45;100626.78;;;19.90;37.57
44839;BME280;30576;42.098;24.876;2022-10-16T11:34:17;100628.97;;;20.02;37.19
44839;BME280;30576;42.098;24.876;2022-10-16T11:39:25;100619.97;;;19.81;36.84
44839;BME280;30576;42.098;24.876;2022-10-16T11:47:19;100620.31;;;20.40;36.41
44839;BME280;30576;42.098;24.876;2022-10-16T11:49:49;100623.75;;;20.44;37.12
44839;BME280;30576;42.098;24.876;2022-10-16T11:57:15;100621.69;;;20.72;34.89
44839;BME280;30576;42.098;24.876;2022-10-16T12:00:25;100626.53;;;20.18;34.26
44839;BME280;30576;42.098;24.876;2022-10-16T12:02:36;100615.91;;;20.39;34.83
44839;BME280;30576;42.098;24.876;2022-10-16T12:07:37;100626.59;;;19.95;35.30
44839;BME280;30576;42.098;24.876;2022-10-16T12:10:22;100626.47;;;19.98;35.13
44839;BME280;30576;42.098;24.876;2022-10-16T12:12:47;100626.22;;;20.04;35.27
44839;BME280;30576;42.098;24.876;2022-10-16T12:17:45;100622.31;;;19.65;35.68
44839;BME280;30576;42.098;24.876;2022-10-16T12:22:36;100617.69;;;19.94;35.51
44839;BME280;30576;42.098;24.876;2022-10-16T12:25:01;100630.31;;;19.67;35.87
44839;BME280;30576;42.098;24.876;2022-10-16T12:27:31;100620.88;;;20.04;35.44
44839;BME280;30576;42.098;24.876;2022-10-16T12:29:58;100625.19;;;20.08;35.53
44839;BME280;30576;42.098;24.876;2022-10-16T12:34:49;100626.41;;;20.21;34.88
44839;BME280;30576;42.098;24.876;2022-10-16T12:37:19;100628.59;;;20.12;34.97
44839;BME280;30576;42.098;24.876;2022-10-16T12:39:46;100629.59;;;20.09;34.49
44839;BME280;30576;42.098;24.876;2022-10-16T12:44:54;100628.47;;;20.59;35.03
44839;BME280;30576;42.098;24.876;2022-10-16T12:47:47;100637.72;;;20.30;33.89
44839;BME280;30576;42.098;24.876;2022-10-16T12:50:31;100631.34;;;20.54;35.51
44839;BME280;30576;42.098;24.876;2022-10-16T12:52:56;100628.69;;;20.54;34.26
44839;BME280;30576;42.098;24.876;2022-10-16T12:55:21;100628.25;;;20.65;34.53
44839;BME280;30576;42.098;24.876;2022-10-16T12:58:02;100631.88;;;20.85;33.86
44839;BME280;30576;42.098;24.876;2022-10-16T13:00:45;100631.41;;;20.75;33.30
44839;BME280;30576;42.098;24.876;2022-10-16T13:05:54;100630.03;;;20.65;33.47
44839;BME280;30576;42.098;24.876;2022-10-16T13:19:27;100634.50;;;20.64;33.77
44839;BME280;30576;42.098;24.876;2022-10-16T13:22:38;100637.09;;;20.67;34.09
44839;BME280;30576;42.098;24.876;2022-10-16T13:24:48;100642.94;;;20.77;33.10
44839;BME280;30576;42.098;24.876;2022-10-16T13:30:02;100647.97;;;20.63;33.17
44839;BME280;30576;42.098;24.876;2022-10-16T13:32:27;100641.44;;;20.26;33.58
44839;BME280;30576;42.098;24.876;2022-10-16T13:34:54;100637.34;;;20.39;33.79
44839;BME280;30576;42.098;24.876;2022-10-16T13:37:21;100633.91;;;20.35;32.91
44839;BME280;30576;42.098;24.876;2022-10-16T13:39:47;100632.84;;;20.39;33.02
44839;BME280;30576;42.098;24.876;2022-10-16T13:42:14;100632.72;;;20.65;32.96
44839;BME280;30576;42.098;24.876;2022-10-16T13:44:42;100642.19;;;20.73;32.67
44839;BME280;30576;42.098;24.876;2022-10-16T13:47:27;100634.50;;;20.64;32.44
44839;BME280;30576;42.098;24.876;2022-10-16T13:50:08;100638.03;;;20.66;32.62
44839;BME280;30576;42.098;24.876;2022-10-16T13:52:36;100629.84;;;20.69;32.83
44839;BME280;30576;42.098;24.876;2022-10-16T13:55:03;100636.00;;;20.49;33.02
44839;BME280;30576;42.098;24.876;2022-10-16T13:57:28;100636.47;;;20.61;33.18
44839;BME280;30576;42.098;24.876;2022-10-16T13:59:54;100635.50;;;20.62;33.10
44839;BME280;30576;42.098;24.876;2022-10-16T14:04:47;100640.31;;;20.53;33.19
44839;BME280;30576;42.098;24.876;2022-10-16T14:07:14;100635.41;;;20.43;34.15
44839;BME280;30576;42.098;24.876;2022-10-16T14:09:39;100641.59;;;20.67;33.13
44839;BME280;30576;42.098;24.876;2022-10-16T14:12:09;100640.44;;;20.50;33.41
44839;BME280;30576;42.098;24.876;2022-10-16T14:14:40;100646.97;;;20.67;33.29
44839;BME280;30576;42.098;24.876;2022-10-16T14:17:05;100637.03;;;20.69;33.43
44839;BME280;30576;42.098;24.876;2022-10-16T14:19:31;100641.53;;;20.68;33.32
44839;BME280;30576;42.098;24.876;2022-10-16T14:21:57;100638.19;;;20.62;32.92
44839;BME280;30576;42.098;24.876;2022-10-16T14:24:31;100638.09;;;20.43;33.40
44839;BME280;30576;42.098;24.876;2022-10-16T14:26:57;100637.09;;;20.45;33.21
44839;BME280;30576;42.098;24.876;2022-10-16T14:29:22;100637.09;;;20.45;33.54
44839;BME280;30576;42.098;24.876;2022-10-16T14:31:58;100637.38;;;20.60;32.75
44839;BME280;30576;42.098;24.876;2022-10-16T14:34:31;100647.56;;;20.51;33.58
44839;BME280;30576;42.098;24.876;2022-10-16T14:36:58;100650.09;;;20.10;35.19
44839;BME280;30576;42.098;24.876;2022-10-16T14:39:26;100653.19;;;20.45;34.32
44839;BME280;30576;42.098;24.876;2022-10-16T14:41:52;100654.16;;;20.20;35.12
44839;BME280;30576;42.098;24.876;2022-10-16T14:44:19;100651.31;;;20.01;35.01